createdAt,value
2022-08-18T00:01:13.381Z,71.54
2022-08-18T00:03:55.568Z,72.03
2022-08-18T00:06:27.900Z,72.64
2022-08-18T00:08:57.133Z,72.43
2022-08-18T00:11:26.664Z,72.97
2022-08-18T00:13:54.568Z,73.39
2022-08-18T00:16:22.588Z,72.65
2022-08-18T00:18:50.616Z,72.59
2022-08-18T00:21:18.996Z,71.59
2022-08-18T00:23:46.928Z,72.15
2022-08-18T00:26:14.815Z,71.97
2022-08-18T00:28:44.077Z,71.90
2022-08-18T00:31:11.968Z,72.38
2022-08-18T00:33:39.875Z,72.29
2022-08-18T00:36:07.820Z,72.26
2022-08-18T00:38:35.699Z,72.57
2022-08-18T00:41:03.695Z,72.43
2022-08-18T00:43:40.731Z,72.47
2022-08-18T00:46:15.539Z,72.69
2022-08-18T00:48:48.843Z,73.15
2022-08-18T00:51:23.818Z,72.82
2022-08-18T00:53:58.404Z,72.58
2022-08-18T00:56:31.406Z,73.80
2022-08-18T00:59:04.839Z,72.84
2022-08-18T01:01:35.557Z,73.06
2022-08-18T01:04:08.232Z,73.34
2022-08-18T01:06:43.193Z,73.88
2022-08-18T01:09:11.329Z,73.94
2022-08-18T01:11:41.396Z,73.90
2022-08-18T01:14:11.189Z,74.45
2022-08-18T01:16:58.043Z,74.76
2022-08-18T01:19:45.258Z,75.60
2022-08-18T01:22:20.557Z,75.28
2022-08-18T01:25:09.566Z,75.47
2022-08-18T01:27:37.734Z,76.17
2022-08-18T01:30:10.460Z,76.02
2022-08-18T01:32:39.936Z,76.01
2022-08-18T01:35:10.950Z,76.70
2022-08-18T01:37:38.840Z,75.74
2022-08-18T01:41:23.095Z,75.79
2022-08-18T01:42:58.772Z,75.63
2022-08-18T01:45:26.624Z,75.18
2022-08-18T01:47:55.862Z,75.66
2022-08-18T01:50:23.763Z,75.81
2022-08-18T01:52:53.725Z,76.03
2022-08-18T01:55:23.124Z,75.93
2022-08-18T01:57:52.336Z,76.41
2022-08-18T02:00:20.965Z,76.36
2022-08-18T02:02:58.184Z,76.17
2022-08-18T02:05:34.448Z,77.03
2022-08-18T02:08:02.384Z,76.04
2022-08-18T02:10:32.575Z,76.26
2022-08-18T02:13:00.511Z,76.42
2022-08-18T02:15:29.007Z,76.33
2022-08-18T02:17:56.872Z,77.59
2022-08-18T02:20:25.336Z,76.91
2022-08-18T02:22:53.291Z,77.46
2022-08-18T02:25:21.176Z,77.99
2022-08-18T02:27:50.496Z,77.51
2022-08-18T02:30:19.970Z,77.96
2022-08-18T02:32:47.928Z,77.93
2022-08-18T02:35:15.823Z,78.31
2022-08-18T02:37:47.697Z,77.93
2022-08-18T02:40:16.802Z,78.18
2022-08-18T02:42:45.681Z,78.39
2022-08-18T02:45:15.595Z,78.32
2022-08-18T02:47:44.336Z,78.57
2022-08-18T02:50:13.348Z,78.41
2022-08-18T02:52:41.380Z,78.93
2022-08-18T02:55:10.240Z,78.73
2022-08-18T02:57:43.415Z,78.89
2022-08-18T03:00:14.671Z,78.81
2022-08-18T03:02:47.332Z,79.42
2022-08-18T03:05:15.293Z,79.14
2022-08-18T03:07:43.571Z,79.09
2022-08-18T03:10:31.815Z,79.35
2022-08-18T03:13:00.238Z,79.86
2022-08-18T03:15:28.199Z,79.94
2022-08-18T03:17:58.297Z,80.08
2022-08-18T03:20:31.028Z,80.54
2022-08-18T03:22:59.342Z,80.33
2022-08-18T03:25:27.270Z,80.05
2022-08-18T03:27:55.159Z,80.41
2022-08-18T03:30:23.598Z,79.88
2022-08-18T03:32:52.226Z,80.03
2022-08-18T03:35:21.612Z,80.50
2022-08-18T03:37:49.434Z,79.99
2022-08-18T03:40:17.510Z,79.97
2022-08-18T03:42:45.458Z,79.91
2022-08-18T03:45:17.715Z,79.88
2022-08-18T03:47:46.582Z,78.96
2022-08-18T03:50:14.498Z,79.55
2022-08-18T03:52:43.744Z,79.38
2022-08-18T03:55:11.915Z,79.94
2022-08-18T03:57:39.772Z,79.80
2022-08-18T04:00:09.986Z,80.24
2022-08-18T04:02:37.840Z,80.01
2022-08-18T04:05:07.423Z,79.71
2022-08-18T04:07:35.372Z,79.96
2022-08-18T04:10:05.083Z,79.71
2022-08-18T04:12:32.923Z,79.84
2022-08-18T04:15:00.781Z,80.15
2022-08-18T04:17:29.002Z,79.71
2022-08-18T04:19:57.681Z,80.27
2022-08-18T04:22:26.386Z,79.45
2022-08-18T04:24:55.604Z,80.03
2022-08-18T04:27:27.097Z,79.57
2022-08-18T04:29:56.673Z,79.59
2022-08-18T04:32:29.949Z,79.32
2022-08-18T04:34:58.508Z,79.47
2022-08-18T04:37:32.365Z,80.11
2022-08-18T04:40:01.168Z,79.98
2022-08-18T04:42:30.438Z,79.86
2022-08-18T04:44:58.773Z,79.92
2022-08-18T04:47:26.726Z,79.91
2022-08-18T04:49:54.732Z,80.03
2022-08-18T04:52:41.977Z,80.48
2022-08-18T04:55:11.431Z,80.07
2022-08-18T04:57:42.528Z,80.37
2022-08-18T05:00:12.553Z,80.04
2022-08-18T05:02:40.684Z,79.94
2022-08-18T05:05:09.699Z,80.25
2022-08-18T05:07:37.575Z,80.11
2022-08-18T05:10:06.260Z,80.47
2022-08-18T05:12:34.256Z,80.34
2022-08-18T05:15:03.621Z,80.38
2022-08-18T05:17:32.030Z,80.85
2022-08-18T05:20:00.971Z,80.73
2022-08-18T05:22:31.551Z,80.64
2022-08-18T05:25:00.900Z,80.50
2022-08-18T05:27:33.283Z,81.06
2022-08-18T05:30:01.145Z,80.72
2022-08-18T05:32:48.754Z,80.60
2022-08-18T05:35:23.265Z,79.56
2022-08-18T05:38:21.081Z,79.97
2022-08-18T05:41:03.576Z,80.63
2022-08-18T05:43:31.737Z,80.52
2022-08-18T05:46:02.563Z,80.65
2022-08-18T05:48:32.153Z,80.30
2022-08-18T05:51:04.736Z,80.37
2022-08-18T05:53:47.422Z,79.96
2022-08-18T05:56:35.707Z,80.05
2022-08-18T05:59:04.609Z,79.96
2022-08-18T06:01:41.388Z,79.87
2022-08-18T06:04:27.165Z,79.56
2022-08-18T06:06:57.784Z,80.24
2022-08-18T06:09:29.836Z,79.61
2022-08-18T06:12:09.053Z,79.57
2022-08-18T06:14:39.267Z,79.34
2022-08-18T06:17:19.363Z,78.89
2022-08-18T06:19:58.275Z,78.74
2022-08-18T06:22:33.905Z,77.49
2022-08-18T06:25:08.379Z,77.40
2022-08-18T06:27:51.141Z,76.63
2022-08-18T06:30:25.448Z,77.00
2022-08-18T06:33:11.308Z,76.46
2022-08-18T06:35:46.903Z,75.40
2022-08-18T06:38:45.608Z,76.00
2022-08-18T06:41:37.968Z,75.02
2022-08-18T06:44:08.698Z,75.82
2022-08-18T06:46:48.188Z,75.01
2022-08-18T06:49:29.348Z,74.97
2022-08-18T06:51:58.593Z,74.61
2022-08-18T06:54:29.569Z,73.15
2022-08-18T06:56:59.124Z,72.99
2022-08-18T06:59:30.932Z,71.63
2022-08-18T07:02:02.602Z,71.15
2022-08-18T07:05:01.368Z,71.77
2022-08-18T07:07:39.597Z,71.16
2022-08-18T07:10:29.059Z,70.77
2022-08-18T07:13:16.496Z,70.29
2022-08-18T07:15:45.428Z,71.03
2022-08-18T07:18:14.314Z,70.76
2022-08-18T07:20:45.168Z,70.10
2022-08-18T07:23:25.753Z,70.62
2022-08-18T07:26:02.874Z,71.19
2022-08-18T07:28:34.232Z,69.85
2022-08-18T07:31:17.803Z,71.11
2022-08-18T07:33:51.777Z,70.96
2022-08-18T07:36:24.326Z,72.46
2022-08-18T07:38:59.497Z,72.32
2022-08-18T07:41:33.028Z,72.89
2022-08-18T07:44:13.983Z,73.32
2022-08-18T07:46:48.718Z,73.16
2022-08-18T07:49:22.315Z,73.55
2022-08-18T07:51:57.819Z,73.63
2022-08-18T07:54:50.102Z,74.09
2022-08-18T07:57:27.970Z,73.91
2022-08-18T08:00:04.770Z,72.72
2022-08-18T08:02:55.094Z,72.75
2022-08-18T08:05:40.887Z,73.02
2022-08-18T08:08:26.175Z,73.05
2022-08-18T08:11:10.867Z,72.97
2022-08-18T08:17:32.531Z,72.34
2022-08-18T08:20:17.387Z,72.93
2022-08-18T08:23:03.384Z,72.47
2022-08-18T08:25:53.123Z,72.20
2022-08-18T08:28:39.371Z,72.31
2022-08-18T08:31:35.883Z,72.15
2022-08-18T08:34:07.840Z,71.99
2022-08-18T08:36:40.188Z,71.49
2022-08-18T08:39:19.007Z,71.49
2022-08-18T08:41:51.382Z,71.36
2022-08-18T08:44:25.942Z,71.58
2022-08-18T08:47:00.021Z,71.41
2022-08-18T08:49:36.995Z,71.09
2022-08-18T08:52:10.211Z,70.78
2022-08-18T08:54:46.766Z,70.70
2022-08-18T08:57:16.856Z,70.88
2022-08-18T08:59:49.908Z,70.82
2022-08-18T09:02:48.122Z,70.59
2022-08-18T09:05:21.198Z,70.49
2022-08-18T09:08:17.298Z,69.70
2022-08-18T09:11:07.909Z,69.88
2022-08-18T09:14:25.832Z,69.79
2022-08-18T09:17:17.324Z,68.93
2022-08-18T09:20:09.333Z,68.80
2022-08-18T09:22:47.900Z,69.15
2022-08-18T09:25:34.739Z,68.81
2022-08-18T09:28:12.347Z,69.20
2022-08-18T09:30:47.448Z,69.36
2022-08-18T09:33:34.769Z,68.55
2022-08-18T09:36:25.634Z,68.21
2022-08-18T09:39:18.393Z,68.54
2022-08-18T09:41:52.733Z,68.13
2022-08-18T09:45:01.459Z,67.68
2022-08-18T09:48:10.088Z,67.43
2022-08-18T09:51:01.628Z,67.06
2022-08-18T09:53:38.239Z,66.62
2022-08-18T09:56:08.116Z,66.13
2022-08-18T09:58:58.685Z,66.22
2022-08-18T10:01:42.496Z,66.13
2022-08-18T10:04:32.175Z,65.77
2022-08-18T10:07:38.742Z,65.33
2022-08-18T10:11:01.118Z,65.76
2022-08-18T10:13:24.707Z,66.02
2022-08-18T10:16:16.650Z,65.24
2022-08-18T10:19:02.343Z,65.13
2022-08-18T10:21:53.737Z,65.60
2022-08-18T10:24:36.042Z,65.48
2022-08-18T10:27:09.928Z,65.70
2022-08-18T10:29:53.861Z,65.43
2022-08-18T10:32:38.975Z,64.45
2022-08-18T10:35:38.168Z,63.88
2022-08-18T10:38:12.949Z,63.40
2022-08-18T10:40:57.116Z,63.66
2022-08-18T10:43:45.731Z,63.85
2022-08-18T10:46:25.626Z,64.07
2022-08-18T10:49:17.395Z,63.64
2022-08-18T10:52:01.435Z,63.59
2022-08-18T10:54:51.164Z,63.20
2022-08-18T10:57:29.732Z,63.78
2022-08-18T11:00:03.627Z,63.13
2022-08-18T11:03:02.488Z,62.89
2022-08-18T11:05:36.675Z,62.54
2022-08-18T11:08:16.130Z,61.77
2022-08-18T11:11:05.923Z,62.56
2022-08-18T11:13:57.957Z,62.89
2022-08-18T11:16:38.797Z,63.15
2022-08-18T11:19:12.202Z,62.54
2022-08-18T11:21:43.919Z,62.42
2022-08-18T11:24:16.371Z,61.92
2022-08-18T11:26:52.658Z,61.67
2022-08-18T11:29:32.626Z,61.36
2022-08-18T11:32:05.252Z,61.16
2022-08-18T11:34:52.074Z,60.77
2022-08-18T11:37:26.964Z,60.86
2022-08-18T11:39:58.907Z,60.82
2022-08-18T11:42:33.637Z,60.50
2022-08-18T11:45:15.993Z,59.32
2022-08-18T11:48:03.217Z,59.03
2022-08-18T11:50:34.991Z,59.48
2022-08-18T11:53:18.859Z,59.18
2022-08-18T11:56:13.282Z,59.23
2022-08-18T11:58:46.029Z,58.77
2022-08-18T12:04:37.426Z,59.28
2022-08-18T12:07:09.310Z,59.63
2022-08-18T12:12:31.455Z,58.61
2022-08-18T12:15:10.487Z,59.09
2022-08-18T12:17:52.162Z,58.52
2022-08-18T12:20:22.150Z,58.26
2022-08-18T12:22:50.839Z,57.31
2022-08-18T12:28:10.916Z,58.35
2022-08-18T12:30:42.182Z,58.79
2022-08-18T12:35:59.862Z,57.14
2022-08-18T12:38:28.203Z,57.34
2022-08-18T12:40:57.084Z,56.77
2022-08-18T12:43:24.949Z,55.60
2022-08-18T12:46:00.882Z,55.90
2022-08-18T12:48:31.623Z,55.89
2022-08-18T12:51:00.962Z,55.10
2022-08-18T12:53:58.517Z,53.76
2022-08-18T12:56:25.436Z,54.07
2022-08-18T12:58:54.760Z,53.84
2022-08-18T13:01:23.467Z,54.02
2022-08-18T13:04:10.933Z,53.87
2022-08-18T13:06:59.463Z,53.77
2022-08-18T13:09:42.976Z,51.76
2022-08-18T13:12:19.664Z,53.02
2022-08-18T13:14:49.775Z,52.84
2022-08-18T13:17:30.589Z,52.81
2022-08-18T13:20:06.176Z,54.49
2022-08-18T13:22:35.907Z,53.65
2022-08-18T13:25:05.223Z,52.89
2022-08-18T13:27:35.348Z,51.84
2022-08-18T13:30:16.853Z,52.40
2022-08-18T13:33:00.351Z,51.07
2022-08-18T13:35:44.167Z,51.78
2022-08-18T13:38:14.482Z,52.34
2022-08-18T13:40:46.869Z,52.16
2022-08-18T13:43:15.803Z,52.54
2022-08-18T13:45:48.132Z,52.97
2022-08-18T13:48:21.481Z,52.74
2022-08-18T13:50:52.270Z,52.19
2022-08-18T13:53:21.805Z,52.27
2022-08-18T13:55:50.401Z,52.45
2022-08-18T13:58:20.874Z,51.96
2022-08-18T14:00:54.001Z,51.96
2022-08-18T14:03:38.520Z,51.20
2022-08-18T14:06:13.333Z,51.77
2022-08-18T14:08:42.241Z,52.06
2022-08-18T14:11:10.648Z,52.33
2022-08-18T14:13:43.871Z,52.34
2022-08-18T14:16:16.267Z,52.50
2022-08-18T14:19:09.455Z,52.54
2022-08-18T14:22:00.711Z,51.30
2022-08-18T14:24:48.915Z,51.74
2022-08-18T14:27:17.479Z,51.26
2022-08-18T14:29:47.947Z,51.56
2022-08-18T14:32:28.600Z,51.60
2022-08-18T14:35:00.516Z,51.85
2022-08-18T14:37:31.339Z,51.26
2022-08-18T14:40:02.535Z,50.66
2022-08-18T14:42:33.038Z,50.99
2022-08-18T14:45:18.100Z,50.97
2022-08-18T14:48:06.521Z,50.30
2022-08-18T14:50:35.267Z,50.42
2022-08-18T14:53:04.783Z,50.45
2022-08-18T14:55:32.838Z,49.83
2022-08-18T14:58:02.528Z,50.10
2022-08-18T15:00:30.573Z,50.10
2022-08-18T15:03:00.232Z,50.32
2022-08-18T15:05:33.717Z,49.91
2022-08-18T15:08:03.700Z,49.56
2022-08-18T15:10:34.220Z,49.72
2022-08-18T15:13:03.694Z,50.23
2022-08-18T15:15:42.226Z,49.78
2022-08-18T15:18:22.593Z,50.08
2022-08-18T15:21:10.346Z,50.03
2022-08-18T15:24:05.081Z,49.84
2022-08-18T15:26:44.333Z,49.07
2022-08-18T15:29:15.011Z,48.76
2022-08-18T15:31:50.804Z,49.60
2022-08-18T15:34:20.575Z,49.97
2022-08-18T15:36:49.425Z,49.77
2022-08-18T15:39:17.875Z,49.51
2022-08-18T15:41:49.325Z,49.54
2022-08-18T15:44:19.174Z,49.94
2022-08-18T15:46:53.025Z,50.16
2022-08-18T15:49:23.885Z,51.06
2022-08-18T15:51:52.493Z,51.03
2022-08-18T15:54:20.787Z,52.32
2022-08-18T15:56:57.794Z,51.61
2022-08-18T15:59:33.068Z,52.02
2022-08-18T16:02:11.460Z,52.31
2022-08-18T16:04:41.293Z,52.33
2022-08-18T16:07:11.034Z,52.19
2022-08-18T16:09:38.974Z,52.54
2022-08-18T16:12:11.244Z,53.01
2022-08-18T16:14:41.539Z,53.00
2022-08-18T16:17:23.482Z,52.80
2022-08-18T16:19:51.987Z,52.90
2022-08-18T16:22:19.961Z,52.56
2022-08-18T16:24:54.610Z,52.29
2022-08-18T16:27:24.961Z,52.71
2022-08-18T16:29:52.866Z,53.55
2022-08-18T16:32:20.703Z,52.97
2022-08-18T16:34:48.621Z,53.03
2022-08-18T16:39:49.509Z,54.88
2022-08-18T16:42:18.162Z,55.63
2022-08-18T16:44:47.515Z,55.90
2022-08-18T16:47:17.603Z,56.36
2022-08-18T16:49:48.516Z,56.54
2022-08-18T16:52:16.747Z,56.60
2022-08-18T16:54:46.319Z,57.20
2022-08-18T16:57:37.410Z,57.34
2022-08-18T17:00:41.284Z,58.46
2022-08-18T17:03:27.361Z,58.73
2022-08-18T17:06:00.835Z,59.60
2022-08-18T17:08:29.499Z,59.79
2022-08-18T17:10:57.868Z,59.83
2022-08-18T17:13:25.741Z,60.22
2022-08-18T17:15:54.978Z,60.32
2022-08-18T17:18:24.354Z,60.53
2022-08-18T17:20:52.734Z,60.90
2022-08-18T17:23:23.979Z,60.75
2022-08-18T17:25:52.523Z,61.30
2022-08-18T17:28:26.289Z,61.13
2022-08-18T17:30:55.685Z,61.50
2022-08-18T17:33:28.904Z,61.92
2022-08-18T17:36:02.359Z,62.16
2022-08-18T17:38:36.309Z,62.26
2022-08-18T17:41:06.251Z,63.20
2022-08-18T17:43:46.144Z,63.22
2022-08-18T17:46:27.365Z,63.54
2022-08-18T17:49:02.154Z,63.95
2022-08-18T17:51:34.673Z,64.26
2022-08-18T17:54:10.224Z,64.56
2022-08-18T17:56:43.387Z,65.28
2022-08-18T18:02:18.283Z,65.09
2022-08-18T18:04:59.422Z,65.83
2022-08-18T18:07:30.141Z,65.87
2022-08-18T18:10:01.671Z,66.40
2022-08-18T18:12:32.103Z,66.36
2022-08-18T18:15:02.116Z,66.35
2022-08-18T18:17:37.598Z,66.21
2022-08-18T18:20:17.806Z,66.34
2022-08-18T18:22:48.576Z,66.82
2022-08-18T18:25:34.815Z,67.49
2022-08-18T18:28:02.893Z,67.23
2022-08-18T18:30:34.863Z,67.63
2022-08-18T18:33:14.099Z,67.27
2022-08-18T18:35:54.012Z,67.20
2022-08-18T18:38:33.457Z,66.27
2022-08-18T18:41:03.806Z,65.84
2022-08-18T18:43:38.812Z,66.06
2022-08-18T18:46:23.739Z,65.84
2022-08-18T18:49:07.506Z,65.73
2022-08-18T18:51:43.693Z,65.91
2022-08-18T18:54:23.596Z,65.64
2022-08-18T18:56:56.278Z,65.68
2022-08-18T18:59:38.725Z,66.05
2022-08-18T19:02:33.707Z,65.63
2022-08-18T19:05:17.631Z,65.25
2022-08-18T19:08:02.187Z,65.10
2022-08-18T19:10:36.978Z,65.24
2022-08-18T19:13:25.121Z,64.54
2022-08-18T19:16:23.849Z,64.94
2022-08-18T19:19:36.279Z,65.13
2022-08-18T19:22:04.423Z,64.83
2022-08-18T19:24:39.173Z,64.93
2022-08-18T19:27:12.380Z,65.36
2022-08-18T19:29:44.604Z,65.08
2022-08-18T19:32:16.848Z,65.22
2022-08-18T19:34:52.642Z,65.42
2022-08-18T19:37:32.363Z,65.54
2022-08-18T19:40:09.317Z,65.49
2022-08-18T19:42:45.143Z,65.52
2022-08-18T19:45:23.457Z,65.68
2022-08-18T19:47:57.374Z,65.78
2022-08-18T19:50:32.186Z,65.16
2022-08-18T19:53:32.794Z,65.76
2022-08-18T19:56:27.571Z,65.40
2022-08-18T19:59:19.588Z,65.94
2022-08-18T20:02:00.436Z,65.96
2022-08-18T20:04:47.635Z,65.96
2022-08-18T20:07:37.910Z,65.95
2022-08-18T20:10:28.118Z,65.65
2022-08-18T20:13:12.490Z,65.29
2022-08-18T20:16:00.042Z,65.93
2022-08-18T20:18:34.543Z,65.71
2022-08-18T20:21:33.985Z,65.81
2022-08-18T20:24:30.436Z,65.58
2022-08-18T20:27:16.309Z,65.78
2022-08-18T20:29:47.395Z,66.09
2022-08-18T20:32:21.191Z,66.06
2022-08-18T20:34:52.261Z,65.90
2022-08-18T20:37:25.541Z,65.84
2022-08-18T20:39:56.638Z,66.03
2022-08-18T20:42:55.819Z,66.34
2022-08-18T20:45:37.203Z,66.23
2022-08-18T20:48:32.632Z,66.28
2022-08-18T20:51:10.621Z,66.06
2022-08-18T20:54:03.318Z,66.33
2022-08-18T20:56:43.290Z,66.02
2022-08-18T20:59:19.546Z,65.94
2022-08-18T21:01:58.901Z,66.50
2022-08-18T21:04:42.836Z,66.36
2022-08-18T21:07:18.475Z,66.47
2022-08-18T21:10:12.777Z,66.46
2022-08-18T21:12:51.849Z,66.50
2022-08-18T21:15:24.271Z,66.59
2022-08-18T21:17:58.820Z,66.67
2022-08-18T21:20:28.472Z,66.30
2022-08-18T21:23:09.965Z,66.31
2022-08-18T21:25:42.017Z,66.46
2022-08-18T21:28:09.931Z,66.14
2022-08-18T21:30:39.388Z,66.44
2022-08-18T21:33:20.123Z,66.42
2022-08-18T21:35:48.419Z,66.15
2022-08-18T21:38:16.434Z,65.68
2022-08-18T21:40:47.917Z,65.95
2022-08-18T21:43:35.783Z,66.31
2022-08-18T21:46:05.192Z,65.98
2022-08-18T21:48:36.076Z,65.93
2022-08-18T21:51:03.968Z,65.77
2022-08-18T21:53:33.778Z,65.78
2022-08-18T21:56:02.621Z,65.40
2022-08-18T21:58:38.869Z,65.81
2022-08-18T22:01:14.004Z,65.70
2022-08-18T22:03:59.465Z,65.57
2022-08-18T22:06:35.997Z,65.56
2022-08-18T22:09:29.579Z,65.70
2022-08-18T22:12:37.676Z,65.69
2022-08-18T22:15:11.730Z,65.77
2022-08-18T22:17:52.812Z,65.91
2022-08-18T22:20:46.679Z,65.69
2022-08-18T22:23:54.934Z,65.31
2022-08-18T22:26:27.284Z,65.93
2022-08-18T22:29:03.926Z,66.16
2022-08-18T22:31:35.579Z,65.65
2022-08-18T22:34:07.446Z,65.71
2022-08-18T22:36:38.052Z,65.95
2022-08-18T22:39:10.264Z,66.49
2022-08-18T22:41:39.200Z,66.09
2022-08-18T22:44:08.099Z,66.71
2022-08-18T22:46:36.957Z,66.67
2022-08-18T22:49:06.489Z,66.96
2022-08-18T22:51:37.096Z,66.66
2022-08-18T22:54:08.347Z,66.53
2022-08-18T22:56:37.875Z,66.78
2022-08-18T22:59:13.979Z,66.60
2022-08-18T23:01:50.078Z,66.65
2022-08-18T23:04:22.226Z,66.48
2022-08-18T23:06:52.573Z,66.42
2022-08-18T23:09:23.526Z,66.74
2022-08-18T23:11:52.196Z,66.73
2022-08-18T23:14:20.340Z,66.71
2022-08-18T23:16:48.401Z,66.42
2022-08-18T23:19:17.531Z,66.58
2022-08-18T23:21:48.459Z,66.38
2022-08-18T23:24:22.492Z,66.07
2022-08-18T23:26:50.875Z,66.36
2022-08-18T23:29:19.825Z,66.60
2022-08-18T23:31:50.074Z,66.54
2022-08-18T23:34:19.275Z,66.29
2022-08-18T23:36:55.481Z,66.12
2022-08-18T23:39:23.884Z,66.47
2022-08-18T23:41:53.030Z,66.53
2022-08-18T23:44:21.254Z,66.67
2022-08-18T23:46:51.886Z,66.55
2022-08-18T23:49:19.875Z,66.51
2022-08-18T23:51:54.460Z,66.45
2022-08-18T23:54:24.426Z,66.50
2022-08-18T23:56:52.367Z,66.66
2022-08-18T23:59:22.619Z,66.80
